createdAt,value
2023-02-24T00:00:40.948Z,17.75
2023-02-24T00:03:45.146Z,16.57
2023-02-24T00:06:48.146Z,17.20
2023-02-24T00:09:50.930Z,17.35
2023-02-24T00:12:54.066Z,16.92
2023-02-24T00:16:02.052Z,17.05
2023-02-24T00:19:07.621Z,17.27
2023-02-24T00:22:10.752Z,16.63
2023-02-24T00:25:14.658Z,16.05
2023-02-24T00:28:17.278Z,16.08
2023-02-24T00:31:21.053Z,16.52
2023-02-24T00:34:24.121Z,16.23
2023-02-24T00:37:26.688Z,16.10
2023-02-24T00:40:30.486Z,15.25
2023-02-24T00:43:37.520Z,16.38
2023-02-24T00:46:42.944Z,15.63
2023-02-24T00:49:46.434Z,15.27
2023-02-24T00:52:49.527Z,15.90
2023-02-24T00:55:59.892Z,15.85
2023-02-24T00:59:03.612Z,15.65
2023-02-24T01:02:11.566Z,14.52
2023-02-24T01:05:15.110Z,15.17
2023-02-24T01:08:22.063Z,14.90
2023-02-24T01:11:45.921Z,15.40
2023-02-24T01:14:52.189Z,14.40
2023-02-24T01:17:54.876Z,13.85
2023-02-24T01:20:59.190Z,14.33
2023-02-24T01:24:01.796Z,14.20
2023-02-24T01:27:06.376Z,13.95
2023-02-24T01:30:16.115Z,14.88
2023-02-24T01:33:19.608Z,14.85
2023-02-24T01:36:27.840Z,14.27
2023-02-24T01:39:30.924Z,14.07
2023-02-24T01:42:33.672Z,13.68
2023-02-24T01:45:40.198Z,13.93
2023-02-24T01:48:42.848Z,13.18
2023-02-24T01:52:02.143Z,13.50
2023-02-24T01:55:14.739Z,13.20
2023-02-24T01:58:26.618Z,14.02
2023-02-24T02:01:40.572Z,13.38
2023-02-24T02:04:48.826Z,13.63
2023-02-24T02:07:52.327Z,13.70
2023-02-24T02:10:59.173Z,13.98
2023-02-24T02:14:02.419Z,12.80
2023-02-24T02:17:20.110Z,13.38
2023-02-24T02:20:48.442Z,12.20
2023-02-24T02:24:04.416Z,13.73
2023-02-24T02:27:37.007Z,12.55
2023-02-24T02:30:48.019Z,12.50
2023-02-24T02:34:09.497Z,12.15
2023-02-24T02:37:17.972Z,12.45
2023-02-24T02:40:37.685Z,12.17
2023-02-24T02:43:53.167Z,12.35
2023-02-24T02:47:01.366Z,12.27
2023-02-24T02:50:08.303Z,12.55
2023-02-24T02:53:19.692Z,12.15
2023-02-24T02:56:30.724Z,11.90
2023-02-24T02:59:37.824Z,11.88
2023-02-24T03:02:48.245Z,12.23
2023-02-24T03:06:02.007Z,11.50
2023-02-24T03:09:18.064Z,11.65
2023-02-24T03:12:23.540Z,11.23
2023-02-24T03:15:30.435Z,11.10
2023-02-24T03:18:38.536Z,12.40
2023-02-24T03:21:47.904Z,11.30
2023-02-24T03:24:51.499Z,11.98
2023-02-24T03:28:10.860Z,11.20
2023-02-24T03:31:22.919Z,12.00
2023-02-24T03:34:39.725Z,12.00
2023-02-24T03:37:44.828Z,11.35
2023-02-24T03:40:48.207Z,11.07
2023-02-24T03:43:59.157Z,11.03
2023-02-24T03:47:02.673Z,11.30
2023-02-24T03:50:33.080Z,11.60
2023-02-24T03:54:02.436Z,11.02
2023-02-24T03:57:55.592Z,10.73
2023-02-24T04:01:13.384Z,10.70
2023-02-24T04:04:37.907Z,10.52
2023-02-24T04:08:04.199Z,10.45
2023-02-24T04:11:52.000Z,10.77
2023-02-24T04:15:04.931Z,10.73
2023-02-24T04:18:15.761Z,10.07
2023-02-24T04:21:23.180Z,10.30
2023-02-24T04:24:30.610Z,10.50
2023-02-24T04:27:34.294Z,10.45
2023-02-24T04:30:54.832Z,10.77
2023-02-24T04:34:00.307Z,10.23
2023-02-24T04:37:10.751Z,10.48
2023-02-24T04:40:22.136Z,10.48
2023-02-24T04:43:24.944Z,11.27
2023-02-24T04:46:27.603Z,10.05
2023-02-24T04:49:30.436Z,10.20
2023-02-24T04:52:33.965Z,11.02
2023-02-24T04:55:42.689Z,10.10
2023-02-24T04:58:46.510Z,9.77
2023-02-24T05:01:53.158Z,10.00
2023-02-24T05:04:55.825Z,9.70
2023-02-24T05:08:03.031Z,8.88
2023-02-24T05:11:05.818Z,9.70
2023-02-24T05:14:10.756Z,9.52
2023-02-24T05:17:16.484Z,9.93
2023-02-24T05:20:37.834Z,10.50
2023-02-24T05:23:46.198Z,9.50
2023-02-24T05:26:49.328Z,9.10
2023-02-24T05:29:53.822Z,9.00
2023-02-24T05:32:58.635Z,9.13
2023-02-24T05:36:06.738Z,9.53
2023-02-24T05:39:12.785Z,9.75
2023-02-24T05:42:15.456Z,9.15
2023-02-24T05:45:18.549Z,9.20
2023-02-24T05:48:21.205Z,9.75
2023-02-24T05:51:28.137Z,9.07
2023-02-24T05:54:33.692Z,9.15
2023-02-24T05:57:37.125Z,8.82
2023-02-24T06:00:41.117Z,8.65
2023-02-24T06:03:48.095Z,8.93
2023-02-24T06:06:52.605Z,9.03
2023-02-24T06:09:57.684Z,9.80
2023-02-24T06:13:02.372Z,8.52
2023-02-24T06:16:07.005Z,9.38
2023-02-24T06:19:12.334Z,8.48
2023-02-24T06:22:17.670Z,8.10
2023-02-24T06:29:33.447Z,8.40
2023-02-24T06:32:39.464Z,9.00
2023-02-24T06:35:42.734Z,8.25
2023-02-24T06:38:52.897Z,8.87
2023-02-24T06:42:03.986Z,8.75
2023-02-24T06:45:08.586Z,8.80
2023-02-24T06:48:18.667Z,8.45
2023-02-24T06:51:26.112Z,8.30
2023-02-24T06:54:30.773Z,8.57
2023-02-24T06:57:34.554Z,8.60
2023-02-24T07:00:38.499Z,8.30
2023-02-24T07:04:02.859Z,8.48
2023-02-24T07:07:11.054Z,8.35
2023-02-24T07:10:13.856Z,7.60
2023-02-24T07:13:16.936Z,9.00
2023-02-24T07:16:25.272Z,8.30
2023-02-24T07:19:32.496Z,8.13
2023-02-24T07:22:35.416Z,7.57
2023-02-24T07:25:40.915Z,7.67
2023-02-24T07:28:44.993Z,7.65
2023-02-24T07:31:55.071Z,7.88
2023-02-24T07:34:59.659Z,8.57
2023-02-24T07:38:08.182Z,8.13
2023-02-24T07:41:13.042Z,7.83
2023-02-24T07:44:18.436Z,6.80
2023-02-24T07:47:21.522Z,7.47
2023-02-24T07:50:25.338Z,7.45
2023-02-24T07:53:28.397Z,7.95
2023-02-24T07:56:32.983Z,7.70
2023-02-24T07:59:38.136Z,7.65
2023-02-24T08:02:41.799Z,7.60
2023-02-24T08:05:44.857Z,7.20
2023-02-24T08:09:00.728Z,7.07
2023-02-24T08:12:05.054Z,7.00
2023-02-24T08:15:17.687Z,7.18
2023-02-24T08:18:20.521Z,7.20
2023-02-24T08:21:23.833Z,7.38
2023-02-24T08:24:31.246Z,6.72
2023-02-24T08:27:40.473Z,6.43
2023-02-24T08:30:51.342Z,6.93
2023-02-24T08:33:56.399Z,7.20
2023-02-24T08:36:59.143Z,6.90
2023-02-24T08:40:05.581Z,6.93
2023-02-24T08:43:16.585Z,6.60
2023-02-24T08:46:26.662Z,7.30
2023-02-24T08:49:29.936Z,6.68
2023-02-24T08:52:36.037Z,6.68
2023-02-24T08:55:40.101Z,6.85
2023-02-24T08:58:48.857Z,6.90
2023-02-24T09:02:04.104Z,9.02
2023-02-24T09:05:14.328Z,9.32
2023-02-24T09:08:19.967Z,8.48
2023-02-24T09:11:24.066Z,8.05
2023-02-24T09:14:31.493Z,7.00
2023-02-24T09:17:40.392Z,7.68
2023-02-24T09:21:18.897Z,7.45
2023-02-24T09:24:27.812Z,7.65
2023-02-24T09:27:30.359Z,7.10
2023-02-24T09:30:36.144Z,7.90
2023-02-24T09:33:39.434Z,7.60
2023-02-24T09:36:45.350Z,6.85
2023-02-24T09:39:57.124Z,7.22
2023-02-24T09:43:00.503Z,6.80
2023-02-24T09:46:18.624Z,7.30
2023-02-24T09:49:56.411Z,7.60
2023-02-24T09:53:14.170Z,6.60
2023-02-24T09:56:37.424Z,7.10
2023-02-24T10:00:01.527Z,6.80
2023-02-24T10:03:19.871Z,7.00
2023-02-24T10:06:35.447Z,7.03
2023-02-24T10:09:46.734Z,6.50
2023-02-24T10:12:58.492Z,7.55
2023-02-24T10:16:07.326Z,7.10
2023-02-24T10:19:31.288Z,6.77
2023-02-24T10:22:58.129Z,6.35
2023-02-24T10:26:34.865Z,6.78
2023-02-24T10:30:04.742Z,6.13
2023-02-24T10:33:20.704Z,6.40
2023-02-24T10:36:35.641Z,6.23
2023-02-24T10:39:43.669Z,6.40
2023-02-24T10:42:49.401Z,6.72
2023-02-24T10:46:06.152Z,6.25
2023-02-24T10:49:16.932Z,5.90
2023-02-24T10:52:50.914Z,6.13
2023-02-24T10:56:15.643Z,6.32
2023-02-24T10:59:25.220Z,6.15
2023-02-24T11:02:32.934Z,6.72
2023-02-24T11:06:15.799Z,6.28
2023-02-24T11:09:19.752Z,6.23
2023-02-24T11:12:45.840Z,5.75
2023-02-24T11:16:13.459Z,5.90
2023-02-24T11:19:16.937Z,6.35
2023-02-24T11:22:24.694Z,6.00
2023-02-24T11:25:37.582Z,5.90
2023-02-24T11:29:04.004Z,6.10
2023-02-24T11:32:26.916Z,6.22
2023-02-24T11:35:45.167Z,5.45
2023-02-24T11:39:15.262Z,5.65
2023-02-24T11:42:31.606Z,6.03
2023-02-24T11:46:00.682Z,6.35
2023-02-24T11:49:32.322Z,5.72
2023-02-24T11:52:41.165Z,5.80
2023-02-24T11:55:53.731Z,5.80
2023-02-24T11:59:13.050Z,5.60
2023-02-24T12:02:24.239Z,5.68
2023-02-24T12:05:49.216Z,6.10
2023-02-24T12:08:57.158Z,6.15
2023-02-24T12:12:13.907Z,6.07
2023-02-24T12:15:25.359Z,5.77
2023-02-24T12:18:34.282Z,5.70
2023-02-24T12:21:42.368Z,6.25
2023-02-24T12:24:51.913Z,6.20
2023-02-24T12:28:10.999Z,5.97
2023-02-24T12:31:37.710Z,5.90
2023-02-24T12:34:47.042Z,5.55
2023-02-24T12:38:18.672Z,5.75
2023-02-24T12:41:24.402Z,6.10
2023-02-24T12:44:53.230Z,6.28
2023-02-24T12:48:14.526Z,5.70
2023-02-24T12:51:29.924Z,6.20
2023-02-24T12:55:02.747Z,5.82
2023-02-24T12:58:20.429Z,5.70
2023-02-24T13:01:35.227Z,5.20
2023-02-24T13:04:44.117Z,5.50
2023-02-24T13:08:03.832Z,5.53
2023-02-24T13:11:06.652Z,6.28
2023-02-24T13:14:28.856Z,5.63
2023-02-24T13:17:32.092Z,5.30
2023-02-24T13:20:37.800Z,5.10
2023-02-24T13:23:42.979Z,5.38
2023-02-24T13:26:46.155Z,5.00
2023-02-24T13:29:50.872Z,5.72
2023-02-24T13:33:03.623Z,5.03
2023-02-24T13:36:15.261Z,5.70
2023-02-24T13:39:34.025Z,6.10
2023-02-24T13:42:36.601Z,5.57
2023-02-24T13:45:42.032Z,5.80
2023-02-24T13:48:56.927Z,5.38
2023-02-24T13:52:20.690Z,5.50
2023-02-24T13:55:59.533Z,5.97
2023-02-24T13:59:16.469Z,5.82
2023-02-24T14:02:22.873Z,5.43
2023-02-24T14:05:28.321Z,7.85
2023-02-24T14:08:43.399Z,7.03
2023-02-24T14:11:46.460Z,6.13
2023-02-24T14:14:50.581Z,6.22
2023-02-24T14:17:59.726Z,6.30
2023-02-24T14:21:02.778Z,6.28
2023-02-24T14:24:12.964Z,6.37
2023-02-24T14:27:31.204Z,6.35
2023-02-24T14:30:40.429Z,5.70
2023-02-24T14:33:45.566Z,6.25
2023-02-24T14:36:59.564Z,6.22
2023-02-24T14:40:06.018Z,6.03
2023-02-24T14:43:15.262Z,5.75
2023-02-24T14:46:18.611Z,5.82
2023-02-24T14:49:28.671Z,6.20
2023-02-24T14:52:45.599Z,6.40
2023-02-24T14:55:52.590Z,6.00
2023-02-24T14:59:08.566Z,6.32
2023-02-24T15:02:19.626Z,6.30
2023-02-24T15:05:23.257Z,5.57
2023-02-24T15:08:28.958Z,6.95
2023-02-24T15:11:32.328Z,6.07
2023-02-24T15:14:35.378Z,6.70
2023-02-24T15:17:41.110Z,6.03
2023-02-24T15:20:43.905Z,7.05
2023-02-24T15:23:47.263Z,6.03
2023-02-24T15:27:20.399Z,5.90
2023-02-24T15:30:55.993Z,6.60
2023-02-24T15:34:01.905Z,6.53
2023-02-24T15:37:26.131Z,6.50
2023-02-24T15:40:30.281Z,6.35
2023-02-24T15:43:39.514Z,5.70
2023-02-24T15:46:42.798Z,6.60
2023-02-24T15:49:45.650Z,5.90
2023-02-24T15:52:48.707Z,6.50
2023-02-24T15:55:51.664Z,5.45
2023-02-24T15:58:54.459Z,6.37
2023-02-24T16:01:58.059Z,6.07
2023-02-24T16:05:01.487Z,6.13
2023-02-24T16:08:05.286Z,6.18
2023-02-24T16:11:08.457Z,6.07
2023-02-24T16:14:15.415Z,6.43
2023-02-24T16:17:29.332Z,6.22
2023-02-24T16:20:33.663Z,6.32
2023-02-24T16:23:40.741Z,5.97
2023-02-24T16:26:43.768Z,5.93
2023-02-24T16:29:47.482Z,6.57
2023-02-24T16:32:50.883Z,5.93
2023-02-24T16:35:54.337Z,5.95
2023-02-24T16:38:58.055Z,6.13
2023-02-24T16:42:06.559Z,6.68
2023-02-24T16:45:11.804Z,6.70
2023-02-24T16:48:26.619Z,6.63
2023-02-24T16:51:31.318Z,6.10
2023-02-24T16:54:34.039Z,6.47
2023-02-24T16:57:37.462Z,6.32
2023-02-24T17:00:43.936Z,6.40
2023-02-24T17:03:54.092Z,5.93
2023-02-24T17:06:56.981Z,6.07
2023-02-24T17:09:59.632Z,6.43
2023-02-24T17:13:03.473Z,6.45
2023-02-24T17:16:06.680Z,6.17
2023-02-24T17:19:11.169Z,6.50
2023-02-24T17:22:14.485Z,6.28
2023-02-24T17:25:21.512Z,6.68
2023-02-24T17:28:25.460Z,6.20
2023-02-24T17:31:32.204Z,6.27
2023-02-24T17:34:35.638Z,7.10
2023-02-24T17:37:39.177Z,6.28
2023-02-24T17:40:44.737Z,6.53
2023-02-24T17:43:50.192Z,6.43
2023-02-24T17:46:54.496Z,7.20
2023-02-24T17:49:57.637Z,5.93
2023-02-24T17:53:02.339Z,5.93
2023-02-24T17:56:06.963Z,6.20
2023-02-24T17:59:10.184Z,6.95
2023-02-24T18:02:14.794Z,6.53
2023-02-24T18:05:18.100Z,6.85
2023-02-24T18:08:21.222Z,6.57
2023-02-24T18:11:24.434Z,6.60
2023-02-24T18:14:31.497Z,6.25
2023-02-24T18:17:36.155Z,6.40
2023-02-24T18:20:43.970Z,6.75
2023-02-24T18:23:49.617Z,6.55
2023-02-24T18:26:53.088Z,6.43
2023-02-24T18:29:56.195Z,5.75
2023-02-24T18:33:00.918Z,6.37
2023-02-24T18:36:04.501Z,6.45
2023-02-24T18:39:10.319Z,6.20
2023-02-24T18:42:13.778Z,6.32
2023-02-24T18:45:17.319Z,6.38
2023-02-24T18:48:24.888Z,6.50
2023-02-24T18:51:31.684Z,6.35
2023-02-24T18:54:35.820Z,7.03
2023-02-24T18:57:40.934Z,6.35
2023-02-24T19:00:46.282Z,6.28
2023-02-24T19:03:52.303Z,6.83
2023-02-24T19:06:55.811Z,6.00
2023-02-24T19:09:59.637Z,6.03
2023-02-24T19:13:04.779Z,7.03
2023-02-24T19:16:08.956Z,6.28
2023-02-24T19:19:17.537Z,6.37
2023-02-24T19:22:21.290Z,7.28
2023-02-24T19:25:24.848Z,7.32
2023-02-24T19:28:28.844Z,5.82
2023-02-24T19:31:33.712Z,6.57
2023-02-24T19:34:38.317Z,6.83
2023-02-24T19:37:41.717Z,6.90
2023-02-24T19:40:49.079Z,6.57
2023-02-24T19:43:53.257Z,6.70
2023-02-24T19:50:17.668Z,6.23
2023-02-24T19:53:26.557Z,6.38
2023-02-24T19:56:32.147Z,7.15
2023-02-24T19:59:37.838Z,5.97
2023-02-24T20:02:42.036Z,6.30
2023-02-24T20:05:47.721Z,6.67
2023-02-24T20:08:52.328Z,6.78
2023-02-24T20:11:58.888Z,6.47
2023-02-24T20:15:02.811Z,6.57
2023-02-24T20:18:09.346Z,6.40
2023-02-24T20:21:14.086Z,6.33
2023-02-24T20:24:19.105Z,6.32
2023-02-24T20:31:30.091Z,6.75
2023-02-24T20:34:36.924Z,6.15
2023-02-24T20:37:43.180Z,6.53
2023-02-24T20:40:46.956Z,6.78
2023-02-24T20:43:50.854Z,6.75
2023-02-24T20:46:54.317Z,6.93
2023-02-24T20:50:00.970Z,6.80
2023-02-24T20:53:04.826Z,6.73
2023-02-24T20:56:20.077Z,6.20
2023-02-24T20:59:23.920Z,6.45
2023-02-24T21:02:27.705Z,6.38
2023-02-24T21:05:30.635Z,6.20
2023-02-24T21:08:34.324Z,7.03
2023-02-24T21:11:40.096Z,6.72
2023-02-24T21:14:45.021Z,6.55
2023-02-24T21:17:48.828Z,6.07
2023-02-24T21:20:55.109Z,6.35
2023-02-24T21:23:58.475Z,6.13
2023-02-24T21:27:01.975Z,5.85
2023-02-24T21:30:07.228Z,6.43
2023-02-24T21:33:13.668Z,6.38
2023-02-24T21:36:16.860Z,6.18
2023-02-24T21:39:20.954Z,5.90
2023-02-24T21:42:23.712Z,6.68
2023-02-24T21:45:28.143Z,6.63
2023-02-24T21:48:31.584Z,6.13
2023-02-24T21:51:34.391Z,5.97
2023-02-24T21:54:37.735Z,6.40
2023-02-24T21:57:44.786Z,7.65
2023-02-24T22:00:49.040Z,6.30
2023-02-24T22:03:56.745Z,6.13
2023-02-24T22:06:59.381Z,6.22
2023-02-24T22:10:02.093Z,6.00
2023-02-24T22:13:04.870Z,5.68
2023-02-24T22:16:09.463Z,5.80
2023-02-24T22:19:12.484Z,6.45
2023-02-24T22:22:15.120Z,6.32
2023-02-24T22:25:17.655Z,6.40
2023-02-24T22:28:20.236Z,6.00
2023-02-24T22:31:26.296Z,6.55
2023-02-24T22:34:29.056Z,5.78
2023-02-24T22:37:32.037Z,6.20
2023-02-24T22:40:35.734Z,5.70
2023-02-24T22:43:38.692Z,6.07
2023-02-24T22:46:41.399Z,6.00
2023-02-24T22:49:44.171Z,6.50
2023-02-24T22:52:46.981Z,5.85
2023-02-24T22:55:50.100Z,6.10
2023-02-24T22:58:53.296Z,5.80
2023-02-24T23:01:55.946Z,5.90
2023-02-24T23:04:58.867Z,5.60
2023-02-24T23:08:03.575Z,5.95
2023-02-24T23:11:12.458Z,5.87
2023-02-24T23:14:16.473Z,6.50
2023-02-24T23:17:19.391Z,5.82
2023-02-24T23:20:22.072Z,5.97
2023-02-24T23:23:25.053Z,6.30
2023-02-24T23:26:33.442Z,6.17
2023-02-24T23:29:36.616Z,6.32
2023-02-24T23:32:39.591Z,6.13
2023-02-24T23:35:42.403Z,6.30
2023-02-24T23:38:45.308Z,5.95
2023-02-24T23:41:47.926Z,6.43
2023-02-24T23:44:51.065Z,6.30
2023-02-24T23:47:53.944Z,5.95
2023-02-24T23:50:57.615Z,6.45
2023-02-24T23:54:00.596Z,6.00
2023-02-24T23:57:03.418Z,6.07
